Latest Weather Observations for Troughton Island

IDW60801

Issued at 1:35 pm WST Thursday 27 November 2014 (issued every 30 minutes, with the page automatically refreshed every 10 minutes)

About weather observations | Map of weather stations | Latest weather observations for WA | Other Formats
Station Details ID: 001007 Name: TROUGHTON ISLAND Lat: -13.75 Lon: 126.15 Height: 6.0 m
Data from the previous 72 hours. | See also: Recent months at Troughton Island
Date/Time
WST
Temp
°C
App
Temp
°C
Dew
Point
Rel
Hum
%
Delta-T
°C
Wind Press
QNH
hPa
Press
MSL
hPa
Rain
since 9 am
mm
Dir
 
Spd
km/h
Gust
km/h
Spd
kts
Gust
kts
27/01:30pm 31.4 33.4 26.4 75 3.6 ENE 28 32 15 17 1008.6 - 0.0
27/01:00pm 31.8 33.7 26.8 75 3.6 NE 30 37 16 20 1008.5 - 0.0
27/12:30pm 30.5 31.2 26.9 81 2.6 ENE 37 43 20 23 1009.0 - 0.0
27/12:00pm 32.4 37.1 27.8 77 3.4 ENE 19 26 10 14 1009.4 1009.3 0.0
27/11:30am 32.5 37.9 27.7 76 3.5 ENE 15 19 8 10 1009.5 - 0.0
27/11:00am 32.2 37.8 27.4 76 3.5 ENE 13 17 7 9 1009.6 - 0.0
27/10:30am 31.9 37.5 27.4 77 3.3 ENE 13 17 7 9 1009.8 - 0.0
27/10:00am 32.2 38.1 27.9 78 3.1 ENE 13 17 7 9 1009.7 - 0.0
27/09:30am 31.6 36.5 27.5 79 3.0 ENE 17 19 9 10 1009.9 - 0.0
27/09:00am 31.7 36.8 27.8 80 2.8 ENE 17 20 9 11 1010.2 1010.1 0.0
27/08:30am 31.4 37.1 27.5 80 2.8 NE 13 17 7 9 1010.4 - 0.0
27/08:00am 31.5 37.4 27.8 81 2.7 ENE 13 17 7 9 1010.1 - 0.0
27/07:30am 30.9 37.2 27.9 84 2.2 ENE 11 15 6 8 1009.8 - 0.0
27/07:00am 30.8 37.4 27.8 84 2.2 E 9 11 5 6 1009.6 - 0.0
27/06:30am 30.1 36.5 27.5 86 1.9 ENE 9 13 5 7 1009.4 - 0.0
27/06:00am 29.7 36.3 27.7 89 1.5 ENE 9 13 5 7 1009.1 1009.0 0.0
27/05:30am 29.0 35.6 27.7 93 0.9 NE 9 11 5 6 1008.5 - 0.0
27/05:00am 28.7 35.3 27.8 95 0.7 NE 9 13 5 7 1008.0 - 0.0
27/04:30am 28.5 34.8 27.4 94 0.8 NNE 9 13 5 7 1007.8 - 0.0
27/04:00am 28.6 34.4 27.2 92 1.0 NNE 11 15 6 8 1007.5 - 0.0
27/03:30am 28.7 33.4 27.3 92 1.0 NE 17 19 9 10 1007.4 - 0.0
27/03:00am 28.8 33.9 27.2 91 1.2 NNE 15 19 8 10 1007.2 1007.1 0.0
27/02:30am 28.7 33.8 27.3 92 1.0 NE 15 19 8 10 1007.2 - 0.0
27/02:00am 28.8 34.0 27.4 92 1.0 NNE 15 17 8 9 1007.2 - 0.0
27/01:30am 28.8 34.1 27.0 90 1.3 NNE 13 15 7 8 1007.3 - 0.0
27/01:00am 28.8 34.1 27.0 90 1.3 NNE 13 17 7 9 1007.4 - 0.0
27/12:30am 28.8 33.9 27.2 91 1.2 NE 15 19 8 10 1007.7 - 0.0
27/12:00am 28.8 34.0 27.4 92 1.0 NE 15 19 8 10 1007.7 1007.6 0.0
 
Date/Time
WST
Temp
°C
App
Temp
°C
Dew
Point
Rel
Hum
%
Delta-T
°C
Wind Press
QNH
hPa
Press
MSL
hPa
Rain
since 9 am
mm
Dir
 
Spd
km/h
Gust
km/h
Spd
kts
Gust
kts
26/11:30pm 28.7 34.2 27.3 92 1.0 NE 13 15 7 8 1008.0 - 0.0
26/11:00pm 28.8 34.2 27.2 91 1.2 NE 13 17 7 9 1008.1 - 0.0
26/10:30pm 29.0 33.8 26.8 88 1.6 NE 15 19 8 10 1008.4 - 0.0
26/10:00pm 28.9 33.9 27.1 90 1.3 NE 15 17 8 9 1008.5 - 0.0
26/09:30pm 29.0 33.5 27.0 89 1.4 NE 17 20 9 11 1008.6 - 0.0
26/09:00pm 29.0 33.3 27.2 90 1.3 NE 19 20 10 11 1008.5 1008.4 0.0
26/08:30pm 29.0 33.5 27.0 89 1.4 NE 17 20 9 11 1008.4 - 0.0
26/08:00pm 29.1 33.7 27.1 89 1.4 ENE 17 20 9 11 1008.4 - 0.0
26/07:30pm 29.1 33.5 26.3 85 2.0 ENE 15 17 8 9 1008.2 - 0.0
26/07:00pm 29.1 34.1 27.1 89 1.4 NE 15 20 8 11 1007.7 - 0.0
26/06:30pm 29.2 34.0 27.4 90 1.3 NNE 17 20 9 11 1007.0 - 0.0
26/06:00pm 29.3 33.2 26.9 87 1.7 ENE 20 24 11 13 1006.5 1006.4 0.0
26/05:30pm 29.7 33.7 27.1 86 1.9 NE 20 28 11 15 1006.5 - 0.0
26/05:00pm 30.1 33.6 26.9 83 2.3 NE 22 26 12 14 1006.3 - 0.0
26/04:30pm 30.3 34.2 26.9 82 2.4 NE 20 24 11 13 1006.2 - 0.0
26/04:00pm 30.6 34.1 26.3 78 3.1 NE 20 26 11 14 1006.2 - 0.0
26/03:30pm 30.7 34.4 26.6 79 2.9 ENE 20 24 11 13 1005.8 - 0.0
26/03:00pm 30.6 33.7 26.3 78 3.1 NE 22 28 12 15 1005.6 1005.5 0.0
26/02:30pm 31.4 33.7 26.2 74 3.7 NE 26 32 14 17 1005.7 - 0.0
26/02:00pm 31.2 33.1 26.2 75 3.6 NE 28 32 15 17 1005.8 - 0.0
26/01:30pm 30.6 34.2 26.5 79 2.9 NE 20 24 11 13 1006.1 - 0.0
26/01:00pm 30.6 33.8 26.5 79 2.9 NNE 22 28 12 15 1006.8 - 0.0
26/12:30pm 30.0 34.0 26.8 83 2.3 NNE 19 26 10 14 1007.1 - 0.0
26/12:00pm 30.2 34.0 26.8 82 2.4 NNE 20 26 11 14 1007.6 1007.5 0.0
26/11:30am 30.3 33.8 26.0 78 3.1 ENE 19 22 10 12 1007.8 - 0.0
26/11:00am 30.2 33.5 25.7 77 3.2 E 19 24 10 13 1007.9 - 0.0
26/10:30am 30.1 33.7 25.6 77 3.2 E 17 20 9 11 1008.3 - 0.0
26/10:00am 30.1 33.3 25.6 77 3.2 E 19 26 10 14 1008.9 - 0.0
26/09:30am 29.6 31.3 25.3 77 3.0 ESE 26 32 14 17 1008.8 - 0.0
26/09:00am 29.7 30.3 25.7 79 2.8 ESE 33 41 18 22 1009.3 1009.2 0.0
26/08:30am 29.4 30.4 26.2 83 2.3 ESE 33 41 18 22 1009.4 - 0.0
26/08:00am 29.5 33.0 26.9 86 1.9 E 22 37 12 20 1008.8 - 0.0
26/07:30am 30.2 34.5 27.2 84 2.2 E 19 22 10 12 1008.7 - 0.0
26/07:00am 30.4 34.7 27.2 83 2.3 E 19 22 10 12 1008.6 - 0.0
26/06:30am 30.0 34.0 27.0 84 2.2 E 20 26 11 14 1008.7 - 0.0
26/06:00am 29.0 31.8 27.0 89 1.4 ESE 26 33 14 18 1008.5 1008.4 0.0
26/05:30am 29.0 31.9 27.6 92 1.0 ESE 28 35 15 19 1008.2 - 0.0
26/05:00am 29.1 34.3 28.0 94 0.8 ESE 17 20 9 11 1008.0 - 0.0
26/04:30am 29.3 33.8 27.7 91 1.2 ESE 20 22 11 12 1007.8 - 0.0
26/04:00am 29.1 34.1 26.5 86 1.9 ESE 13 15 7 8 1007.4 - 0.0
26/03:30am 29.1 34.8 26.5 86 1.9 ENE 9 13 5 7 1007.0 - 0.0
26/03:00am 28.9 34.8 25.9 84 2.1 NE 6 7 3 4 1006.3 1006.2 0.0
26/02:30am 29.1 34.2 25.5 81 2.5 NNE 9 11 5 6 1006.1 - 0.0
26/02:00am 28.8 34.1 25.2 81 2.5 NE 7 11 4 6 1006.0 - 0.0
26/01:30am 28.8 35.5 25.4 82 2.4 CALM 0 7 0 4 1006.0 - 0.0
26/01:00am 28.7 35.1 24.9 80 2.7 CALM 0 0 0 0 1006.0 - 0.0
26/12:30am 28.8 33.7 25.2 81 2.5 SW 9 11 5 6 1006.3 - 0.0
26/12:00am 28.8 33.0 24.8 79 2.8 SW 11 13 6 7 1006.6 1006.5 0.0
 
Date/Time
WST
Temp
°C
App
Temp
°C
Dew
Point
Rel
Hum
%
Delta-T
°C
Wind Press
QNH
hPa
Press
MSL
hPa
Rain
since 9 am
mm
Dir
 
Spd
km/h
Gust
km/h
Spd
kts
Gust
kts
25/11:30pm 28.7 34.0 24.9 80 2.7 SW 6 7 3 4 1007.0 - 0.0
25/11:00pm 29.1 33.8 24.9 78 2.9 SSW 9 11 5 6 1007.3 - 0.0
25/10:30pm 29.1 34.0 24.6 76 3.1 SSE 7 9 4 5 1007.6 - 0.0
25/10:00pm 29.3 34.1 24.2 74 3.5 S 6 9 3 5 1007.6 - 0.0
25/09:30pm 28.8 33.6 24.4 77 3.1 SW 7 11 4 6 1007.5 - 0.0
25/09:00pm 29.0 33.8 24.1 75 3.4 NNW 6 9 3 5 1007.2 1007.1 0.0
25/08:30pm 28.8 33.3 24.6 78 2.9 SSW 9 13 5 7 1007.2 - 0.0
25/08:00pm 29.2 33.8 24.7 77 3.1 SSE 9 13 5 7 1007.3 - 0.0
25/07:30pm 29.5 33.2 24.6 75 3.4 S 13 19 7 10 1007.4 - 0.0
25/07:00pm 30.0 35.4 26.6 82 2.4 SE 11 13 6 7 1007.6 - 0.0
25/06:30pm 30.0 37.4 27.0 84 2.2 WNW 2 11 1 6 1007.4 - 0.0
25/06:00pm 30.1 36.5 27.5 86 1.9 N 9 13 5 7 1006.7 1006.6 0.0
25/05:30pm 30.4 37.0 27.2 83 2.3 NNW 7 9 4 5 1006.8 - 0.0
25/05:00pm 30.8 36.6 27.2 81 2.6 NNE 11 13 6 7 1006.8 - 0.0
25/04:30pm 31.9 37.5 28.0 80 2.8 E 15 19 8 10 1007.1 - 0.0
25/04:00pm 31.5 37.7 26.7 75 3.5 WNW 7 9 4 5 1006.8 - 0.0
25/03:30pm 32.5 37.0 27.5 75 3.6 WNW 19 26 10 14 1006.2 - 0.0
25/03:00pm 32.9 36.8 27.4 73 4.0 WNW 22 26 12 14 1006.0 1005.9 0.0
25/02:30pm 32.9 36.6 27.2 72 4.1 WNW 22 28 12 15 1006.1 - 0.0
25/02:00pm 32.9 36.0 26.9 70 4.3 WNW 24 28 13 15 1006.1 - 0.0
25/01:30pm 33.8 38.1 28.0 71 4.3 WNW 22 28 12 15 1006.2 - 0.0
25/01:00pm 33.8 37.2 27.3 69 4.7 WNW 24 28 13 15 1006.5 - 0.0
25/12:30pm 33.3 38.2 28.3 75 3.7 WNW 20 26 11 14 1007.1 - 0.0
25/12:00pm 33.6 38.7 28.3 74 3.9 W 19 22 10 12 1007.6 1007.5 0.0
25/11:30am 33.2 37.9 27.2 71 4.4 W 17 20 9 11 1008.3 - 0.0
25/11:00am 33.4 38.6 27.9 73 4.0 W 17 22 9 12 1008.9 - 0.0
25/10:30am 33.2 38.4 27.9 74 3.9 W 17 20 9 11 1009.3 - 0.0
25/10:00am 33.0 38.5 28.4 77 3.4 WSW 17 20 9 11 1009.6 - 0.0
25/09:30am 33.5 38.9 28.7 76 3.5 WSW 19 20 10 11 1009.9 - 0.0
25/09:00am 32.7 37.9 28.4 78 3.2 SW 19 22 10 12 1010.2 1010.1 0.0
25/08:30am 32.8 38.2 28.7 79 3.0 SW 19 24 10 13 1010.1 - 0.0
25/08:00am 31.6 37.8 28.8 85 2.1 WSW 15 17 8 9 1009.9 - 0.0
25/07:30am 31.1 37.2 28.1 84 2.2 WSW 13 17 7 9 1009.7 - 0.0
25/07:00am 30.4 37.1 28.4 89 1.5 W 11 15 6 8 1009.6 - 0.0
25/06:30am 30.0 35.9 27.8 88 1.6 W 13 17 7 9 1009.4 - 0.0
25/06:00am 29.4 35.5 28.1 93 0.9 W 13 15 7 8 1008.9 1008.8 0.0
25/05:30am 28.9 35.1 28.2 96 0.5 WNW 13 15 7 8 1008.6 - 0.0
25/05:00am 28.5 34.2 27.6 95 0.7 WNW 13 13 7 7 1008.3 - 0.0
25/04:30am 28.7 34.0 27.6 94 0.8 WNW 15 17 8 9 1008.0 - 0.0
25/04:00am 28.7 33.8 27.3 92 1.0 NW 15 17 8 9 1007.7 - 0.0
25/03:30am 28.8 34.1 27.6 93 0.9 NNW 15 17 8 9 1007.7 - 0.0
25/03:00am 28.8 34.0 27.4 92 1.0 NW 15 17 8 9 1007.9 1007.8 0.0
25/02:30am 28.9 34.4 27.3 91 1.2 NNW 13 17 7 9 1008.0 - 0.0
25/02:00am 29.1 34.0 27.5 91 1.2 NNW 17 20 9 11 1007.8 - 0.0
25/01:30am 29.0 34.0 27.6 92 1.0 NNW 17 20 9 11 1008.0 - 0.0
25/01:00am 29.0 34.8 27.7 93 0.9 NNW 13 15 7 8 1008.6 - 0.0
25/12:30am 28.7 34.4 27.6 94 0.8 NW 13 15 7 8 1008.8 - 0.0
25/12:00am 28.9 34.6 27.5 92 1.0 NNW 13 15 7 8 1009.0 1008.9 0.0
 
Date/Time
WST
Temp
°C
App
Temp
°C
Dew
Point
Rel
Hum
%
Delta-T
°C
Wind Press
QNH
hPa
Press
MSL
hPa
Rain
since 9 am
mm
Dir
 
Spd
km/h
Gust
km/h
Spd
kts
Gust
kts
24/11:30pm 29.1 34.1 27.7 92 1.0 NW 17 19 9 10 1009.0 - 0.0
24/11:00pm 29.1 34.0 27.5 91 1.2 NW 17 19 9 10 1009.4 - 0.0
24/10:30pm 29.1 34.9 27.7 92 1.0 NNW 13 17 7 9 1010.0 - 0.0
24/10:00pm 29.5 35.2 27.5 89 1.4 NNW 13 17 7 9 1010.2 - 0.0
24/09:30pm 29.6 34.8 27.4 88 1.6 N 15 17 8 9 1010.2 - 0.0
24/09:00pm 29.7 34.9 27.9 90 1.3 NNW 17 20 9 11 1009.8 1009.7 0.0
24/08:30pm 29.5 34.5 28.2 93 0.9 NNW 19 20 10 11 1009.5 - 0.0
24/08:00pm 29.3 34.5 28.0 93 0.9 NNW 17 20 9 11 1009.3 - 0.0
24/07:30pm 29.5 34.3 27.9 91 1.2 NNW 19 20 10 11 1009.0 - 0.0
24/07:00pm 29.7 33.9 27.1 86 1.9 NW 19 24 10 13 1008.7 - 0.0
24/06:30pm 29.8 33.8 26.8 84 2.2 NW 19 22 10 12 1008.3 - 0.0
24/06:00pm 30.0 33.8 26.8 83 2.3 NW 20 26 11 14 1007.8 1007.7 0.0
24/05:30pm 30.4 34.5 27.2 83 2.3 NW 20 24 11 13 1007.4 - 0.0
24/05:00pm 31.4 35.8 27.3 79 3.0 NW 19 24 10 13 1007.4 - 0.0
24/04:30pm 31.7 35.7 26.7 75 3.6 WNW 19 22 10 12 1007.2 - 0.0
24/04:00pm 32.3 37.2 27.5 76 3.5 WNW 17 19 9 10 1007.1 - 0.0
24/03:30pm 32.4 37.3 26.9 73 4.0 WNW 15 19 8 10 1007.1 - 0.0
24/03:00pm 32.5 37.4 27.5 75 3.6 WNW 17 20 9 11 1007.1 1007.0 0.0
24/02:30pm 32.7 37.9 27.9 76 3.5 WNW 17 22 9 12 1007.2 - 0.0
24/02:00pm 32.9 37.5 27.9 75 3.7 W 20 22 11 12 1007.6 - 0.0

Other Formats:

Comma delimited format used in spreadsheet applications
http://www.bom.gov.au/fwo/IDW60801/IDW60801.94102.axf

JavaScript Object Notation format (JSON) in row-major order
http://www.bom.gov.au/fwo/IDW60801/IDW60801.94102.json